Angelina County Airport Lufkin US
ICAO: KLFK
IATA: LFK
Category: Medium
Scheduled Services: No

Elevation: 296 ft
TransAlt. 18000 ft.

Airport Communications:
ASOS:120.625
HOUSTON CNTR:134.8
MONTGOMERY CO RDO:122.2
CTAF/UNICOM:123

KLFK Zoom In..

Runways:

(A) RW 07 length 5400 ft width 100 ft
ILS 111.30 / hdg 70

(B) RW 15 length 4311 ft width 100 ft
---- / hdg 155

(C) RW 25 length 5400 ft width 100 ft
---- / hdg 250

(D) RW 33 length 4311 ft width 100 ft
---- / hdg 335

Location; KLFK
Day. 26 / Time. 13.53 Zulu
* Altimeter: 29.87
* Temperature: 26° c. 78.8°f.
* Wind from: 230° Speed 07 kn.
Dewpoint: 23° c.
Visibility: 10 Statute Miles.
Clouds: Scattered 1100 ft.

KLFK 261353Z AUTO 23007KT 10SM SCT011 26/23 A2987 RMK AO2 SLP112 T02610228


Wind From 230°
Speed 07 kn.

 
 
jpsmedia.com for Web Design SOUNDCLOUD worldairports.se 2018   terms of use